Time;durP1;ratioP1;P1;durP2;ratioP2;P2;SDS_P1;SDS_P2;PMS_P1;PMS_P2;Temp;Humidity;BMP_temperature;BMP_pressure;BME280_temperature;BME280_humidity;BME280_pressure;Samples;Min_cycle;Max_cycle;Signal;HPM_P1;HPM_P2
2021/01/18 00:01:27;;;;;;;98.60;46.97;;;;;;;;;;10121718;28;20501;-60
2021/01/18 00:06:24;;;;;;;59.58;34.25;;;;;;;;;;10121800;28;20082;-60
2021/01/18 00:11:22;;;;;;;48.75;27.67;;;;;;;;;;10120999;28;20493;-60
2021/01/18 00:16:21;;;;;;;54.47;29.08;;;;;;;;;;10121438;28;20164;-60
2021/01/18 00:21:20;;;;;;;66.45;33.45;;;;;;;;;;10121349;28;20085;-59
2021/01/18 00:26:19;;;;;;;70.72;35.38;;;;;;;;;;10120253;28;20420;-60
2021/01/18 00:31:17;;;;;;;54.75;29.23;;;;;;;;;;10120368;28;20086;-60
2021/01/18 00:36:15;;;;;;;43.15;24.58;;;;;;;;;;10119788;28;20053;-59
2021/01/18 00:41:12;;;;;;;48.30;27.83;;;;;;;;;;10120327;28;20074;-60
2021/01/18 00:46:10;;;;;;;32.20;21.23;;;;;;;;;;10120117;28;20074;-61
2021/01/18 00:51:07;;;;;;;33.05;21.88;;;;;;;;;;10119879;28;20090;-61
2021/01/18 00:56:06;;;;;;;29.42;17.33;;;;;;;;;;10119356;28;20045;-61
2021/01/18 01:01:09;;;;;;;26.63;17.75;;;;;;;;;;10102133;28;20066;-60
2021/01/18 01:06:08;;;;;;;29.63;17.10;;;;;;;;;;10101548;28;20051;-60
2021/01/18 01:11:06;;;;;;;31.98;19.25;;;;;;;;;;10119251;28;20113;-60
2021/01/18 01:16:04;;;;;;;33.28;19.42;;;;;;;;;;10119184;28;20046;-60
2021/01/18 01:21:02;;;;;;;31.98;19.35;;;;;;;;;;10119086;28;20046;-61
2021/01/18 01:26:00;;;;;;;33.55;21.45;;;;;;;;;;10118430;28;20094;-59
2021/01/18 01:30:58;;;;;;;35.40;22.23;;;;;;;;;;10117863;28;20074;-61
2021/01/18 01:35:56;;;;;;;37.75;24.98;;;;;;;;;;10118481;28;20082;-60
2021/01/18 01:40:53;;;;;;;67.90;42.00;;;;;;;;;;10118223;28;20459;-62
2021/01/18 01:45:51;;;;;;;144.60;83.68;;;;;;;;;;10117512;28;20687;-61
2021/01/18 01:50:49;;;;;;;56.58;33.10;;;;;;;;;;10116318;28;20051;-60
2021/01/18 01:55:46;;;;;;;48.42;26.67;;;;;;;;;;10116876;28;20058;-60
2021/01/18 02:00:44;;;;;;;37.60;22.73;;;;;;;;;;10116774;28;20082;-59
2021/01/18 02:05:42;;;;;;;28.77;19.52;;;;;;;;;;10116713;28;20074;-61
2021/01/18 02:10:42;;;;;;;33.42;18.75;;;;;;;;;;10117037;28;20101;-60
2021/01/18 02:15:44;;;;;;;32.28;19.20;;;;;;;;;;10117202;28;20043;-61
2021/01/18 02:20:52;;;;;;;42.08;25.23;;;;;;;;;;10116888;28;20058;-61
2021/01/18 02:25:51;;;;;;;40.97;22.45;;;;;;;;;;10116327;28;20511;-60
2021/01/18 02:31:15;;;;;;;34.60;21.02;;;;;;;;;;10116524;28;20042;-60
2021/01/18 02:36:16;;;;;;;29.90;18.80;;;;;;;;;;10116018;28;20080;-60
2021/01/18 02:41:17;;;;;;;36.30;21.17;;;;;;;;;;10116471;28;20128;-60
2021/01/18 02:46:17;;;;;;;26.48;17.00;;;;;;;;;;10115822;28;20457;-60
2021/01/18 02:51:18;;;;;;;29.85;17.75;;;;;;;;;;10115778;28;20050;-60
2021/01/18 02:56:15;;;;;;;28.27;18.27;;;;;;;;;;10115928;28;20414;-60
2021/01/18 03:01:16;;;;;;;33.10;20.55;;;;;;;;;;10115412;28;20078;-60
2021/01/18 03:06:18;;;;;;;29.25;19.65;;;;;;;;;;10114863;28;20078;-61
2021/01/18 03:11:17;;;;;;;31.73;18.65;;;;;;;;;;10115940;28;20085;-61
2021/01/18 03:16:17;;;;;;;31.45;18.98;;;;;;;;;;10115704;28;20043;-61
2021/01/18 03:21:14;;;;;;;24.80;17.67;;;;;;;;;;10114974;28;20082;-61
2021/01/18 03:26:13;;;;;;;26.10;16.70;;;;;;;;;;10114754;28;20078;-60
2021/01/18 03:31:10;;;;;;;24.02;15.57;;;;;;;;;;10114742;28;20471;-61
2021/01/18 03:36:08;;;;;;;24.27;16.08;;;;;;;;;;10115109;28;20083;-60
2021/01/18 03:41:05;;;;;;;31.45;17.40;;;;;;;;;;10114514;28;20066;-61
2021/01/18 03:46:05;;;;;;;24.08;15.32;;;;;;;;;;10114971;28;20070;-61
2021/01/18 03:51:03;;;;;;;24.30;15.98;;;;;;;;;;10115104;28;20038;-61
2021/01/18 03:56:00;;;;;;;23.45;16.52;;;;;;;;;;10114104;28;20079;-62
2021/01/18 04:00:58;;;;;;;26.55;16.60;;;;;;;;;;10113640;28;20066;-60
2021/01/18 04:05:56;;;;;;;29.65;16.65;;;;;;;;;;10114426;28;20085;-60
2021/01/18 04:10:54;;;;;;;26.45;17.35;;;;;;;;;;10096111;28;20385;-59
2021/01/18 04:15:51;;;;;;;42.85;25.25;;;;;;;;;;10121266;28;20083;-60
2021/01/18 04:20:49;;;;;;;41.92;25.27;;;;;;;;;;10114075;28;20067;-60
2021/01/18 04:25:47;;;;;;;62.20;38.35;;;;;;;;;;10120431;28;20070;-60
2021/01/18 04:30:45;;;;;;;560.05;260.20;;;;;;;;;;10118875;28;20070;-61
2021/01/18 04:35:42;;;;;;;174.57;87.18;;;;;;;;;;10099412;28;20096;-61
2021/01/18 04:40:39;;;;;;;136.77;62.97;;;;;;;;;;10112198;28;20079;-61
2021/01/18 04:45:42;;;;;;;161.20;66.95;;;;;;;;;;10102881;28;20051;-56
2021/01/18 04:50:40;;;;;;;102.57;48.30;;;;;;;;;;10102680;28;20047;-60
2021/01/18 04:55:47;;;;;;;92.07;43.25;;;;;;;;;;10102634;28;20051;-61
2021/01/18 05:00:46;;;;;;;118.20;53.70;;;;;;;;;;10119335;28;20077;-61
2021/01/18 05:05:57;;;;;;;126.80;55.35;;;;;;;;;;10118833;28;20470;-61
2021/01/18 05:10:57;;;;;;;93.28;48.05;;;;;;;;;;10119145;28;20063;-61
2021/01/18 05:15:58;;;;;;;111.95;52.08;;;;;;;;;;10118435;28;20117;-61
2021/01/18 05:20:56;;;;;;;157.57;66.60;;;;;;;;;;10118964;28;20551;-61
2021/01/18 05:26:13;;;;;;;131.13;56.50;;;;;;;;;;10117620;28;20082;-61
2021/01/18 05:31:30;;;;;;;57.55;33.58;;;;;;;;;;10118690;28;20440;-61
2021/01/18 05:36:35;;;;;;;45.35;27.05;;;;;;;;;;10119450;28;20139;-60
2021/01/18 05:41:33;;;;;;;57.05;30.63;;;;;;;;;;10118405;28;20048;-59
2021/01/18 05:46:31;;;;;;;70.38;39.47;;;;;;;;;;10118189;28;20073;-60
2021/01/18 05:51:29;;;;;;;96.10;51.95;;;;;;;;;;10117478;28;20082;-61
2021/01/18 05:56:27;;;;;;;109.95;59.80;;;;;;;;;;10116831;28;20070;-61
2021/01/18 06:01:38;;;;;;;60.55;36.15;;;;;;;;;;10115646;28;20078;-61
2021/01/18 06:06:36;;;;;;;40.80;26.75;;;;;;;;;;10117348;28;20082;-62
2021/01/18 06:11:33;;;;;;;35.58;23.48;;;;;;;;;;10117860;28;20508;-61
2021/01/18 06:16:31;;;;;;;41.05;26.33;;;;;;;;;;10117168;28;20051;-61
2021/01/18 06:21:36;;;;;;;43.90;26.75;;;;;;;;;;10117112;28;20089;-61
2021/01/18 06:26:35;;;;;;;41.83;27.05;;;;;;;;;;10116823;28;20515;-61
2021/01/18 06:31:43;;;;;;;38.45;26.52;;;;;;;;;;10116660;28;20046;-60
2021/01/18 06:36:41;;;;;;;48.38;28.00;;;;;;;;;;10116318;28;20116;-61
2021/01/18 06:41:39;;;;;;;49.95;30.23;;;;;;;;;;10115661;28;20070;-61
2021/01/18 06:46:37;;;;;;;69.85;40.22;;;;;;;;;;10116181;28;20485;-61
2021/01/18 06:51:36;;;;;;;82.50;53.67;;;;;;;;;;10116232;28;20076;-61
2021/01/18 06:56:48;;;;;;;105.93;55.35;;;;;;;;;;10115775;28;20050;-61
2021/01/18 07:01:46;;;;;;;62.30;40.22;;;;;;;;;;10115211;28;20051;-61
2021/01/18 07:06:44;;;;;;;49.72;31.33;;;;;;;;;;10115515;28;20086;-61
2021/01/18 07:11:43;;;;;;;40.22;26.42;;;;;;;;;;10116144;28;20089;-61
2021/01/18 07:16:41;;;;;;;43.45;25.23;;;;;;;;;;10115197;28;20105;-61
2021/01/18 07:21:42;;;;;;;30.73;21.17;;;;;;;;;;10115656;28;20097;-61
2021/01/18 07:27:04;;;;;;;136.93;53.10;;;;;;;;;;10115542;28;20457;-61
2021/01/18 07:32:01;;;;;;;48.13;28.00;;;;;;;;;;10115752;28;20503;-60
2021/01/18 07:37:05;;;;;;;70.35;39.75;;;;;;;;;;10115849;28;20054;-60
2021/01/18 07:42:06;;;;;;;60.63;36.47;;;;;;;;;;10114768;28;20066;-61
2021/01/18 07:47:06;;;;;;;65.18;39.28;;;;;;;;;;10116105;28;20083;-60
2021/01/18 07:52:14;;;;;;;54.88;36.80;;;;;;;;;;10105384;28;20059;-60
2021/01/18 07:57:25;;;;;;;37.78;24.83;;;;;;;;;;10122099;28;20086;-60
2021/01/18 08:02:23;;;;;;;52.30;33.50;;;;;;;;;;10121490;28;20523;-61
2021/01/18 08:07:20;;;;;;;32.70;21.95;;;;;;;;;;10121558;28;20088;-60
2021/01/18 08:12:31;;;;;;;40.75;28.38;;;;;;;;;;10122425;28;20105;-60
2021/01/18 08:17:28;;;;;;;33.25;22.23;;;;;;;;;;10121477;28;20420;-60
2021/01/18 08:22:28;;;;;;;30.10;19.27;;;;;;;;;;10121453;28;20075;-60
2021/01/18 08:27:37;;;;;;;38.30;24.63;;;;;;;;;;10121149;28;20054;-61
2021/01/18 08:32:35;;;;;;;39.80;25.52;;;;;;;;;;10121292;28;20492;-60
2021/01/18 08:37:33;;;;;;;39.45;25.73;;;;;;;;;;10121207;28;20081;-60
2021/01/18 08:42:31;;;;;;;36.42;22.13;;;;;;;;;;10120208;28;20066;-60
2021/01/18 08:47:40;;;;;;;44.97;25.02;;;;;;;;;;10120599;28;20085;-61
2021/01/18 08:52:37;;;;;;;36.78;22.65;;;;;;;;;;10120371;28;20043;-59
2021/01/18 08:57:39;;;;;;;46.28;25.20;;;;;;;;;;10120273;28;20070;-60
2021/01/18 09:02:36;;;;;;;42.63;27.50;;;;;;;;;;10119983;28;20476;-61
2021/01/18 09:07:35;;;;;;;40.47;23.58;;;;;;;;;;10119727;28;20582;-61
2021/01/18 09:12:33;;;;;;;70.72;37.22;;;;;;;;;;10120245;28;20051;-61
2021/01/18 09:17:30;;;;;;;100.80;46.63;;;;;;;;;;10119714;28;20086;-61
2021/01/18 09:22:28;;;;;;;47.75;27.90;;;;;;;;;;10119897;28;20472;-61
2021/01/18 09:27:26;;;;;;;42.17;27.88;;;;;;;;;;10119340;28;20070;-61
2021/01/18 09:32:23;;;;;;;34.53;22.92;;;;;;;;;;10119050;28;20078;-61
2021/01/18 09:37:21;;;;;;;40.95;25.95;;;;;;;;;;10118883;28;20054;-62
2021/01/18 09:42:19;;;;;;;36.42;21.52;;;;;;;;;;10118681;28;20067;-60
2021/01/18 09:47:18;;;;;;;40.03;22.83;;;;;;;;;;10117815;28;20074;-61
2021/01/18 09:52:16;;;;;;;48.72;30.02;;;;;;;;;;10117749;28;20416;-61
2021/01/18 09:57:15;;;;;;;62.83;36.58;;;;;;;;;;10117956;28;20108;-61
2021/01/18 10:02:12;;;;;;;41.60;29.48;;;;;;;;;;10118455;28;20043;-61
2021/01/18 10:07:12;;;;;;;49.05;30.00;;;;;;;;;;10116558;28;20074;-61
2021/01/18 10:12:13;;;;;;;30.27;20.77;;;;;;;;;;10117134;28;20074;-61
2021/01/18 10:17:11;;;;;;;37.08;24.92;;;;;;;;;;10117390;28;20093;-60
2021/01/18 10:22:15;;;;;;;29.83;21.20;;;;;;;;;;10116370;28;20150;-60
2021/01/18 10:27:15;;;;;;;41.13;22.85;;;;;;;;;;10117214;28;20085;-61
2021/01/18 10:32:12;;;;;;;41.30;22.23;;;;;;;;;;10116881;28;20038;-61
2021/01/18 10:37:17;;;;;;;37.42;20.55;;;;;;;;;;10116605;28;20077;-61
2021/01/18 10:42:15;;;;;;;34.38;20.50;;;;;;;;;;10116718;28;20035;-61
2021/01/18 10:47:13;;;;;;;41.15;24.33;;;;;;;;;;10116428;28;20074;-61
2021/01/18 10:52:11;;;;;;;43.45;24.40;;;;;;;;;;10116102;28;20086;-60
2021/01/18 10:57:20;;;;;;;20.98;15.43;;;;;;;;;;10116261;28;20262;-61
2021/01/18 11:02:26;;;;;;;32.03;21.33;;;;;;;;;;10116328;28;20051;-61
2021/01/18 11:07:24;;;;;;;36.08;22.75;;;;;;;;;;10115313;28;20599;-61
2021/01/18 11:12:29;;;;;;;25.20;18.35;;;;;;;;;;10114651;28;20058;-62
2021/01/18 11:17:27;;;;;;;57.65;28.58;;;;;;;;;;10115059;28;20050;-61
2021/01/18 11:22:24;;;;;;;37.95;25.05;;;;;;;;;;10119233;28;20039;-61
2021/01/18 11:27:22;;;;;;;29.67;18.98;;;;;;;;;;10122792;28;20071;-61
2021/01/18 11:32:21;;;;;;;33.03;21.23;;;;;;;;;;10123548;28;20420;-63
2021/01/18 11:37:18;;;;;;;31.30;18.25;;;;;;;;;;10122975;28;20070;-61
2021/01/18 11:42:15;;;;;;;43.85;24.15;;;;;;;;;;10122213;28;20476;-61
2021/01/18 11:47:13;;;;;;;156.63;69.55;;;;;;;;;;10123028;28;20511;-61
2021/01/18 11:52:12;;;;;;;98.78;46.15;;;;;;;;;;10122833;28;20046;-61
2021/01/18 11:57:09;;;;;;;84.22;37.10;;;;;;;;;;10121981;28;20046;-61
2021/01/18 12:02:07;;;;;;;42.80;23.25;;;;;;;;;;10122215;28;20085;-61
2021/01/18 12:07:05;;;;;;;156.77;56.22;;;;;;;;;;10122092;28;20089;-61
2021/01/18 12:12:05;;;;;;;217.70;71.63;;;;;;;;;;10121727;28;20101;-61
2021/01/18 12:17:02;;;;;;;96.85;40.58;;;;;;;;;;10121257;28;20500;-61
2021/01/18 12:22:00;;;;;;;105.72;38.53;;;;;;;;;;10121521;28;20046;-60
2021/01/18 12:26:57;;;;;;;53.90;26.75;;;;;;;;;;10120540;28;20079;-60
2021/01/18 12:31:55;;;;;;;192.27;60.63;;;;;;;;;;10120100;28;20071;-61
2021/01/18 12:36:54;;;;;;;164.15;58.28;;;;;;;;;;10120343;28;20043;-60
2021/01/18 12:41:54;;;;;;;43.10;24.70;;;;;;;;;;10121506;28;20438;-61
2021/01/18 12:46:56;;;;;;;59.15;32.35;;;;;;;;;;10119605;28;20109;-61
2021/01/18 12:51:55;;;;;;;69.82;36.53;;;;;;;;;;10119746;28;20104;-61
2021/01/18 12:56:52;;;;;;;48.42;28.23;;;;;;;;;;10120197;28;20066;-61
2021/01/18 13:01:50;;;;;;;46.55;25.58;;;;;;;;;;10120052;28;20412;-61
2021/01/18 13:06:49;;;;;;;40.50;22.38;;;;;;;;;;10119350;28;20082;-60
2021/01/18 13:11:48;;;;;;;41.25;25.80;;;;;;;;;;10118825;28;20087;-61
2021/01/18 13:16:45;;;;;;;45.90;30.73;;;;;;;;;;10119059;28;20054;-61
2021/01/18 13:21:44;;;;;;;36.03;23.90;;;;;;;;;;10118686;28;20081;-61
2021/01/18 13:26:41;;;;;;;36.17;23.83;;;;;;;;;;10119189;28;20085;-62
2021/01/18 13:31:40;;;;;;;40.22;31.23;;;;;;;;;;10119121;28;20067;-60
2021/01/18 13:36:38;;;;;;;36.50;26.13;;;;;;;;;;10101021;28;20047;-61
2021/01/18 13:41:35;;;;;;;30.92;21.67;;;;;;;;;;10100870;28;20047;-60
2021/01/18 13:46:33;;;;;;;41.25;27.80;;;;;;;;;;10116594;28;20086;-61
2021/01/18 13:51:31;;;;;;;44.00;24.60;;;;;;;;;;10117518;28;20527;-61
2021/01/18 13:56:28;;;;;;;46.45;29.52;;;;;;;;;;10118097;28;20051;-61
2021/01/18 14:01:27;;;;;;;51.78;30.65;;;;;;;;;;10117494;28;20087;-61
2021/01/18 14:06:25;;;;;;;36.38;23.80;;;;;;;;;;10117572;28;20480;-60
2021/01/18 14:11:30;;;;;;;69.60;41.35;;;;;;;;;;10116958;28;20059;-60
2021/01/18 14:16:28;;;;;;;43.53;29.20;;;;;;;;;;10117121;28;20039;-59
2021/01/18 14:21:34;;;;;;;47.33;30.60;;;;;;;;;;10393335;27;20698;-60
2021/01/18 14:26:32;;;;;;;41.92;24.55;;;;;;;;;;10393181;28;20036;-61
2021/01/18 14:31:30;;;;;;;59.80;34.55;;;;;;;;;;10393940;28;20612;-60
2021/01/18 14:36:29;;;;;;;58.30;33.65;;;;;;;;;;10393522;28;20386;-59
2021/01/18 14:41:28;;;;;;;110.40;53.85;;;;;;;;;;10392982;28;20083;-59
2021/01/18 14:46:26;;;;;;;74.13;39.53;;;;;;;;;;10392955;28;20040;-59
2021/01/18 14:51:24;;;;;;;120.78;59.42;;;;;;;;;;10392734;28;20051;-61
2021/01/18 14:56:22;;;;;;;103.40;52.38;;;;;;;;;;10392736;28;20039;-60
2021/01/18 15:01:21;;;;;;;116.38;59.80;;;;;;;;;;10392572;28;20076;-60
2021/01/18 15:06:22;;;;;;;74.95;41.67;;;;;;;;;;10392730;28;20493;-61
2021/01/18 15:11:21;;;;;;;79.70;41.20;;;;;;;;;;10392382;28;20042;-60
2021/01/18 15:16:18;;;;;;;90.35;45.53;;;;;;;;;;10391722;28;20401;-60
2021/01/18 15:21:16;;;;;;;76.50;43.17;;;;;;;;;;10391418;28;20083;-59
2021/01/18 15:26:14;;;;;;;112.90;57.75;;;;;;;;;;10389604;28;20048;-60
2021/01/18 15:31:11;;;;;;;71.82;37.70;;;;;;;;;;10373473;28;20056;-60
2021/01/18 15:36:09;;;;;;;60.47;32.78;;;;;;;;;;10363695;28;20056;-61
2021/01/18 15:41:13;;;;;;;90.45;44.15;;;;;;;;;;10363288;28;20098;-60
2021/01/18 15:46:10;;;;;;;72.10;38.63;;;;;;;;;;10363139;28;20420;-60
2021/01/18 15:51:11;;;;;;;73.47;39.72;;;;;;;;;;10349815;28;20075;-60
2021/01/18 15:56:09;;;;;;;90.15;50.00;;;;;;;;;;10332718;28;20473;-61
2021/01/18 16:01:07;;;;;;;60.22;37.83;;;;;;;;;;10334559;28;20082;-61
2021/01/18 16:06:05;;;;;;;50.38;30.38;;;;;;;;;;10321118;28;20542;-58
2021/01/18 16:11:02;;;;;;;87.00;47.35;;;;;;;;;;10334712;28;20055;-59
2021/01/18 16:16:01;;;;;;;56.90;33.40;;;;;;;;;;10333223;28;20082;-59
2021/01/18 16:20:58;;;;;;;65.15;34.45;;;;;;;;;;10338493;28;20084;-62
2021/01/18 16:25:56;;;;;;;342.90;129.57;;;;;;;;;;10335043;28;20501;-61
2021/01/18 16:30:54;;;;;;;165.20;73.60;;;;;;;;;;10341603;28;20063;-59
2021/01/18 16:35:53;;;;;;;264.05;99.88;;;;;;;;;;10330446;28;20426;-60
2021/01/18 16:40:50;;;;;;;163.40;62.80;;;;;;;;;;10327982;28;20110;-59
2021/01/18 16:45:47;;;;;;;173.80;62.92;;;;;;;;;;10326941;28;20064;-60
2021/01/18 16:50:45;;;;;;;178.13;70.30;;;;;;;;;;10344126;28;20586;-58
2021/01/18 16:55:43;;;;;;;176.60;74.47;;;;;;;;;;10338211;28;20071;-60
2021/01/18 17:00:43;;;;;;;133.35;55.17;;;;;;;;;;10319926;28;20072;-59
2021/01/18 17:05:43;;;;;;;144.65;63.08;;;;;;;;;;10324288;28;20068;-60
2021/01/18 17:10:41;;;;;;;203.98;98.10;;;;;;;;;;10335869;28;20087;-60
2021/01/18 17:15:39;;;;;;;120.63;53.90;;;;;;;;;;10329793;28;20064;-60
2021/01/18 17:20:36;;;;;;;117.00;50.80;;;;;;;;;;10319883;28;20076;-61
2021/01/18 17:25:33;;;;;;;84.90;40.60;;;;;;;;;;10329338;28;20500;-61
2021/01/18 17:30:31;;;;;;;120.72;50.22;;;;;;;;;;10332292;28;20071;-60
2021/01/18 17:35:29;;;;;;;91.00;41.03;;;;;;;;;;10324469;28;20044;-59
2021/01/18 17:40:26;;;;;;;97.10;46.20;;;;;;;;;;10334535;28;20359;-60
2021/01/18 17:45:24;;;;;;;60.50;33.55;;;;;;;;;;10348026;28;20079;-61
2021/01/18 17:50:21;;;;;;;66.28;38.13;;;;;;;;;;10319384;28;20075;-61
2021/01/18 17:55:19;;;;;;;49.88;29.30;;;;;;;;;;10344461;28;20067;-59
2021/01/18 18:00:19;;;;;;;36.58;21.67;;;;;;;;;;10324575;28;20072;-59
2021/01/18 18:05:17;;;;;;;47.40;29.25;;;;;;;;;;10316953;28;20071;-61
2021/01/18 18:10:14;;;;;;;68.85;37.60;;;;;;;;;;10316106;28;20091;-60
2021/01/18 18:15:13;;;;;;;75.82;42.85;;;;;;;;;;10316876;28;20071;-61
2021/01/18 18:20:17;;;;;;;54.40;33.00;;;;;;;;;;10316515;28;20135;-61
2021/01/18 18:25:14;;;;;;;52.53;27.85;;;;;;;;;;10316037;28;20063;-59
2021/01/18 18:30:13;;;;;;;48.92;28.17;;;;;;;;;;10316403;28;20076;-60
2021/01/18 18:35:11;;;;;;;50.08;28.23;;;;;;;;;;10316124;28;20064;-62
2021/01/18 18:40:09;;;;;;;50.08;26.73;;;;;;;;;;10315258;28;20076;-60
2021/01/18 18:45:07;;;;;;;41.75;25.75;;;;;;;;;;10315866;28;20075;-61
2021/01/18 18:50:06;;;;;;;59.67;30.88;;;;;;;;;;10315914;28;20059;-60
2021/01/18 18:55:03;;;;;;;66.78;37.10;;;;;;;;;;10315639;28;20048;-60
2021/01/18 19:00:01;;;;;;;70.78;36.15;;;;;;;;;;10316073;28;20084;-59
2021/01/18 19:04:58;;;;;;;56.83;32.88;;;;;;;;;;10317588;28;20414;-56
2021/01/18 19:09:56;;;;;;;58.08;32.22;;;;;;;;;;10323115;28;20046;-59
2021/01/18 19:14:54;;;;;;;79.28;42.22;;;;;;;;;;10321711;28;20053;-59
2021/01/18 19:19:51;;;;;;;153.98;71.65;;;;;;;;;;10322884;28;20468;-60
2021/01/18 19:24:48;;;;;;;120.13;56.30;;;;;;;;;;10322830;28;20068;-60
2021/01/18 19:29:46;;;;;;;145.80;67.18;;;;;;;;;;10322069;28;20047;-60
2021/01/18 19:34:44;;;;;;;99.55;49.45;;;;;;;;;;10322510;28;20131;-60
2021/01/18 19:39:41;;;;;;;62.60;37.10;;;;;;;;;;10321638;28;20072;-58
2021/01/18 19:44:38;;;;;;;113.90;49.85;;;;;;;;;;10331005;28;20470;-58
2021/01/18 19:49:37;;;;;;;86.50;43.40;;;;;;;;;;10337679;28;20122;-58
2021/01/18 19:54:35;;;;;;;55.15;30.55;;;;;;;;;;10321205;28;20051;-59
2021/01/18 19:59:32;;;;;;;54.40;29.10;;;;;;;;;;10321418;28;20075;-59
2021/01/18 20:04:30;;;;;;;65.45;35.28;;;;;;;;;;10321106;28;20049;-60
2021/01/18 20:09:28;;;;;;;131.95;56.58;;;;;;;;;;10321005;28;20049;-60
2021/01/18 20:14:25;;;;;;;129.43;59.83;;;;;;;;;;10320488;28;20072;-60
2021/01/18 20:19:22;;;;;;;117.05;56.00;;;;;;;;;;10320236;28;20076;-59
2021/01/18 20:24:20;;;;;;;81.18;39.47;;;;;;;;;;10320607;28;20115;-59
2021/01/18 20:29:18;;;;;;;77.60;38.80;;;;;;;;;;10320260;28;20082;-59
2021/01/18 20:34:19;;;;;;;64.10;33.97;;;;;;;;;;10319760;28;20071;-59
2021/01/18 20:39:16;;;;;;;80.03;42.35;;;;;;;;;;10319623;28;20264;-60
2021/01/18 20:44:14;;;;;;;115.75;58.78;;;;;;;;;;10319743;28;20067;-61
2021/01/18 20:49:12;;;;;;;60.42;31.50;;;;;;;;;;10319318;28;20047;-59
2021/01/18 20:54:09;;;;;;;48.40;28.33;;;;;;;;;;10319107;28;20080;-60
2021/01/18 20:59:07;;;;;;;65.50;34.00;;;;;;;;;;10318764;28;20080;-61
2021/01/18 21:04:04;;;;;;;73.88;42.33;;;;;;;;;;10318685;28;20052;-60
2021/01/18 21:09:03;;;;;;;62.20;34.35;;;;;;;;;;10318566;28;20044;-60
2021/01/18 21:14:00;;;;;;;55.30;32.28;;;;;;;;;;10318606;28;20041;-61
2021/01/18 21:18:59;;;;;;;66.53;38.90;;;;;;;;;;10317974;28;20080;-61
2021/01/18 21:23:57;;;;;;;56.42;31.30;;;;;;;;;;10326177;28;20505;-60
2021/01/18 21:28:55;;;;;;;51.20;28.17;;;;;;;;;;10340321;28;20110;-60
2021/01/18 21:33:52;;;;;;;47.53;27.58;;;;;;;;;;10339170;28;20071;-60
2021/01/18 21:38:51;;;;;;;56.42;29.85;;;;;;;;;;10349217;28;20067;-61
2021/01/18 21:43:48;;;;;;;61.80;32.42;;;;;;;;;;10358391;28;20044;-61
2021/01/18 21:48:48;;;;;;;83.70;38.55;;;;;;;;;;10357831;28;20074;-61
2021/01/18 21:53:45;;;;;;;44.05;23.88;;;;;;;;;;10358146;28;20048;-61
2021/01/18 21:58:43;;;;;;;45.13;26.55;;;;;;;;;;10358031;28;20493;-60
2021/01/18 22:03:40;;;;;;;52.78;27.38;;;;;;;;;;10358257;28;20044;-60
2021/01/18 22:08:38;;;;;;;49.08;28.02;;;;;;;;;;10357772;28;20053;-60
2021/01/18 22:13:35;;;;;;;51.22;28.17;;;;;;;;;;10357573;28;20075;-60
2021/01/18 22:18:33;;;;;;;42.00;23.25;;;;;;;;;;10357315;28;20072;-60
2021/01/18 22:23:30;;;;;;;49.47;25.35;;;;;;;;;;10357841;28;20437;-59
2021/01/18 22:28:28;;;;;;;46.78;23.25;;;;;;;;;;10357820;28;20044;-60
2021/01/18 22:33:26;;;;;;;37.83;24.02;;;;;;;;;;10357081;28;20047;-60
2021/01/18 22:38:23;;;;;;;39.28;24.27;;;;;;;;;;10355612;28;20106;-59
2021/01/18 22:43:21;;;;;;;31.88;19.98;;;;;;;;;;10365954;28;20075;-60
2021/01/18 22:48:20;;;;;;;39.58;21.02;;;;;;;;;;10364895;28;20126;-60
2021/01/18 22:53:17;;;;;;;38.13;21.48;;;;;;;;;;10365274;28;20048;-59
2021/01/18 22:58:14;;;;;;;32.28;18.50;;;;;;;;;;10364545;28;20061;-59
2021/01/18 23:03:11;;;;;;;33.00;19.92;;;;;;;;;;10364499;28;20044;-59
2021/01/18 23:08:10;;;;;;;32.53;19.13;;;;;;;;;;10364168;28;20604;-60
2021/01/18 23:13:07;;;;;;;31.35;18.52;;;;;;;;;;10364450;28;20100;-60
2021/01/18 23:18:05;;;;;;;38.85;20.83;;;;;;;;;;10364005;28;20088;-60
2021/01/18 23:23:02;;;;;;;41.15;20.50;;;;;;;;;;10363862;28;20481;-59
2021/01/18 23:28:01;;;;;;;33.72;20.33;;;;;;;;;;10363152;28;20076;-59
2021/01/18 23:32:58;;;;;;;30.45;17.02;;;;;;;;;;10363985;28;20048;-60
2021/01/18 23:37:55;;;;;;;28.05;17.20;;;;;;;;;;10363564;28;20070;-60
2021/01/18 23:42:53;;;;;;;44.08;22.77;;;;;;;;;;10362692;28;20532;-59
2021/01/18 23:47:51;;;;;;;33.22;19.35;;;;;;;;;;10362570;28;20102;-60
2021/01/18 23:52:49;;;;;;;26.17;17.17;;;;;;;;;;10361944;28;20048;-60
2021/01/18 23:57:46;;;;;;;29.63;16.88;;;;;;;;;;10362198;28;20078;-60
